sensor_id;sensor_type;location;lat;lon;timestamp;temperature;humidity
30134;DHT22;16946;49.984;10.672;2022-07-21T00:00:23;22.60;99.90
30134;DHT22;16946;49.984;10.672;2022-07-21T00:00:53;22.50;99.90
30134;DHT22;16946;49.984;10.672;2022-07-21T00:01:24;22.50;99.90
30134;DHT22;16946;49.984;10.672;2022-07-21T00:01:54;22.40;99.90
30134;DHT22;16946;49.984;10.672;2022-07-21T00:02:25;22.40;99.90
30134;DHT22;16946;49.984;10.672;2022-07-21T00:02:56;22.50;99.90
30134;DHT22;16946;49.984;10.672;2022-07-21T00:03:27;22.50;99.90
30134;DHT22;16946;49.984;10.672;2022-07-21T00:03:57;22.50;99.90
30134;DHT22;16946;49.984;10.672;2022-07-21T00:04:28;22.40;99.90
30134;DHT22;16946;49.984;10.672;2022-07-21T00:04:59;22.40;99.90
30134;DHT22;16946;49.984;10.672;2022-07-21T00:05:30;22.30;99.90
30134;DHT22;16946;49.984;10.672;2022-07-21T00:06:00;22.30;99.90
30134;DHT22;16946;49.984;10.672;2022-07-21T00:06:31;22.40;99.90
30134;DHT22;16946;49.984;10.672;2022-07-21T00:07:01;22.40;99.90
30134;DHT22;16946;49.984;10.672;2022-07-21T00:07:32;22.50;99.90
30134;DHT22;16946;49.984;10.672;2022-07-21T00:08:04;22.50;99.90
30134;DHT22;16946;49.984;10.672;2022-07-21T00:08:34;22.50;99.90
30134;DHT22;16946;49.984;10.672;2022-07-21T00:09:05;22.50;99.90
30134;DHT22;16946;49.984;10.672;2022-07-21T00:09:35;22.40;99.90
30134;DHT22;16946;49.984;10.672;2022-07-21T00:10:06;22.50;99.90
30134;DHT22;16946;49.984;10.672;2022-07-21T00:10:37;22.50;99.90
30134;DHT22;16946;49.984;10.672;2022-07-21T00:11:07;22.60;99.90
30134;DHT22;16946;49.984;10.672;2022-07-21T00:11:38;22.60;99.90
30134;DHT22;16946;49.984;10.672;2022-07-21T00:12:09;22.60;99.90
30134;DHT22;16946;49.984;10.672;2022-07-21T00:12:39;22.60;99.90
30134;DHT22;16946;49.984;10.672;2022-07-21T00:13:10;22.60;99.90
30134;DHT22;16946;49.984;10.672;2022-07-21T00:13:42;22.50;99.90
30134;DHT22;16946;49.984;10.672;2022-07-21T00:14:12;22.50;99.90
30134;DHT22;16946;49.984;10.672;2022-07-21T00:14:43;22.50;99.90
30134;DHT22;16946;49.984;10.672;2022-07-21T00:15:15;22.40;99.90
30134;DHT22;16946;49.984;10.672;2022-07-21T00:15:46;22.40;99.90
30134;DHT22;16946;49.984;10.672;2022-07-21T00:16:17;22.40;99.90
30134;DHT22;16946;49.984;10.672;2022-07-21T00:16:47;22.40;99.90
30134;DHT22;16946;49.984;10.672;2022-07-21T00:17:18;22.30;99.90
30134;DHT22;16946;49.984;10.672;2022-07-21T00:17:48;22.40;99.90
30134;DHT22;16946;49.984;10.672;2022-07-21T00:18:19;22.50;99.90
30134;DHT22;16946;49.984;10.672;2022-07-21T00:18:50;22.60;99.90
30134;DHT22;16946;49.984;10.672;2022-07-21T00:19:20;22.60;99.90
30134;DHT22;16946;49.984;10.672;2022-07-21T00:19:51;22.70;99.90
30134;DHT22;16946;49.984;10.672;2022-07-21T00:20:22;22.70;99.90
30134;DHT22;16946;49.984;10.672;2022-07-21T00:20:53;22.70;99.90
30134;DHT22;16946;49.984;10.672;2022-07-21T00:21:24;22.70;99.90
30134;DHT22;16946;49.984;10.672;2022-07-21T00:21:55;22.80;99.90
30134;DHT22;16946;49.984;10.672;2022-07-21T00:22:26;22.80;99.90
30134;DHT22;16946;49.984;10.672;2022-07-21T00:22:57;22.90;99.90
30134;DHT22;16946;49.984;10.672;2022-07-21T00:23:28;22.90;99.90
30134;DHT22;16946;49.984;10.672;2022-07-21T00:23:59;22.90;99.90
30134;DHT22;16946;49.984;10.672;2022-07-21T00:24:30;22.90;99.90
30134;DHT22;16946;49.984;10.672;2022-07-21T00:25:00;22.90;99.90
30134;DHT22;16946;49.984;10.672;2022-07-21T00:25:31;22.90;99.90
30134;DHT22;16946;49.984;10.672;2022-07-21T00:26:02;22.90;99.90
30134;DHT22;16946;49.984;10.672;2022-07-21T00:26:33;22.90;99.90
30134;DHT22;16946;49.984;10.672;2022-07-21T00:27:04;22.90;99.90
30134;DHT22;16946;49.984;10.672;2022-07-21T00:27:35;22.90;99.90
30134;DHT22;16946;49.984;10.672;2022-07-21T00:28:06;23.00;99.90
30134;DHT22;16946;49.984;10.672;2022-07-21T00:28:36;23.00;99.90
30134;DHT22;16946;49.984;10.672;2022-07-21T00:29:07;22.90;99.90
30134;DHT22;16946;49.984;10.672;2022-07-21T00:29:37;23.00;99.90
30134;DHT22;16946;49.984;10.672;2022-07-21T00:30:09;23.00;99.90
30134;DHT22;16946;49.984;10.672;2022-07-21T00:30:40;23.00;99.90
30134;DHT22;16946;49.984;10.672;2022-07-21T00:31:10;23.00;99.90
30134;DHT22;16946;49.984;10.672;2022-07-21T00:31:41;23.00;99.90
30134;DHT22;16946;49.984;10.672;2022-07-21T00:32:11;23.00;99.90
30134;DHT22;16946;49.984;10.672;2022-07-21T00:32:42;22.90;99.90
30134;DHT22;16946;49.984;10.672;2022-07-21T00:33:13;22.90;99.90
30134;DHT22;16946;49.984;10.672;2022-07-21T00:33:44;22.80;99.90
30134;DHT22;16946;49.984;10.672;2022-07-21T00:34:14;22.70;99.90
30134;DHT22;16946;49.984;10.672;2022-07-21T00:34:45;22.70;99.90
30134;DHT22;16946;49.984;10.672;2022-07-21T00:35:15;22.60;99.90
30134;DHT22;16946;49.984;10.672;2022-07-21T00:35:46;22.60;99.90
30134;DHT22;16946;49.984;10.672;2022-07-21T00:36:17;22.50;99.90
30134;DHT22;16946;49.984;10.672;2022-07-21T00:36:48;22.50;99.90
30134;DHT22;16946;49.984;10.672;2022-07-21T00:37:19;22.40;99.90
30134;DHT22;16946;49.984;10.672;2022-07-21T00:37:49;22.40;99.90
30134;DHT22;16946;49.984;10.672;2022-07-21T00:38:20;22.30;99.90
30134;DHT22;16946;49.984;10.672;2022-07-21T00:38:50;22.20;99.90
30134;DHT22;16946;49.984;10.672;2022-07-21T00:39:21;22.20;99.90
30134;DHT22;16946;49.984;10.672;2022-07-21T00:39:51;22.20;99.90
30134;DHT22;16946;49.984;10.672;2022-07-21T00:40:22;22.10;99.90
30134;DHT22;16946;49.984;10.672;2022-07-21T00:40:53;22.10;99.90
30134;DHT22;16946;49.984;10.672;2022-07-21T00:41:25;22.10;99.90
30134;DHT22;16946;49.984;10.672;2022-07-21T00:41:55;22.10;99.90
30134;DHT22;16946;49.984;10.672;2022-07-21T00:42:28;22.10;99.90
30134;DHT22;16946;49.984;10.672;2022-07-21T00:42:58;22.00;99.90
30134;DHT22;16946;49.984;10.672;2022-07-21T00:43:29;22.00;99.90
30134;DHT22;16946;49.984;10.672;2022-07-21T00:44:00;21.90;99.90
30134;DHT22;16946;49.984;10.672;2022-07-21T00:44:30;21.90;99.90
30134;DHT22;16946;49.984;10.672;2022-07-21T00:45:02;21.90;99.90
30134;DHT22;16946;49.984;10.672;2022-07-21T00:45:33;21.90;99.90
30134;DHT22;16946;49.984;10.672;2022-07-21T00:46:04;21.90;99.90
30134;DHT22;16946;49.984;10.672;2022-07-21T00:46:35;22.00;99.90
30134;DHT22;16946;49.984;10.672;2022-07-21T00:47:05;22.00;99.90
30134;DHT22;16946;49.984;10.672;2022-07-21T00:47:36;22.00;99.90
30134;DHT22;16946;49.984;10.672;2022-07-21T00:48:07;22.00;99.90
30134;DHT22;16946;49.984;10.672;2022-07-21T00:48:38;22.10;99.90
30134;DHT22;16946;49.984;10.672;2022-07-21T00:49:08;22.10;99.90
30134;DHT22;16946;49.984;10.672;2022-07-21T00:49:39;22.10;99.90
30134;DHT22;16946;49.984;10.672;2022-07-21T00:50:17;22.10;99.90
30134;DHT22;16946;49.984;10.672;2022-07-21T00:50:48;22.10;99.90
30134;DHT22;16946;49.984;10.672;2022-07-21T00:51:19;22.10;99.90
30134;DHT22;16946;49.984;10.672;2022-07-21T00:51:49;22.00;99.90
30134;DHT22;16946;49.984;10.672;2022-07-21T00:52:20;22.00;99.90
30134;DHT22;16946;49.984;10.672;2022-07-21T00:52:51;22.00;99.90
30134;DHT22;16946;49.984;10.672;2022-07-21T00:53:22;22.00;99.90
30134;DHT22;16946;49.984;10.672;2022-07-21T00:53:52;22.00;99.90
30134;DHT22;16946;49.984;10.672;2022-07-21T00:54:23;21.90;99.90
30134;DHT22;16946;49.984;10.672;2022-07-21T00:54:53;21.90;99.90
30134;DHT22;16946;49.984;10.672;2022-07-21T00:55:24;21.80;99.90
30134;DHT22;16946;49.984;10.672;2022-07-21T00:55:54;21.80;99.90
30134;DHT22;16946;49.984;10.672;2022-07-21T00:56:25;21.80;99.90
30134;DHT22;16946;49.984;10.672;2022-07-21T00:56:56;21.70;99.90
30134;DHT22;16946;49.984;10.672;2022-07-21T00:57:26;21.70;99.90
30134;DHT22;16946;49.984;10.672;2022-07-21T00:57:57;21.60;99.90
30134;DHT22;16946;49.984;10.672;2022-07-21T00:58:27;21.60;99.90
30134;DHT22;16946;49.984;10.672;2022-07-21T00:58:58;21.60;99.90
30134;DHT22;16946;49.984;10.672;2022-07-21T00:59:30;21.50;99.90
30134;DHT22;16946;49.984;10.672;2022-07-21T01:00:03;21.50;99.90
30134;DHT22;16946;49.984;10.672;2022-07-21T01:00:34;21.50;99.90
30134;DHT22;16946;49.984;10.672;2022-07-21T01:01:04;21.40;99.90
30134;DHT22;16946;49.984;10.672;2022-07-21T01:01:35;21.40;99.90
30134;DHT22;16946;49.984;10.672;2022-07-21T01:02:06;21.50;99.90
30134;DHT22;16946;49.984;10.672;2022-07-21T01:02:36;21.50;99.90
30134;DHT22;16946;49.984;10.672;2022-07-21T01:03:07;21.60;99.90
30134;DHT22;16946;49.984;10.672;2022-07-21T01:03:38;21.60;99.90
30134;DHT22;16946;49.984;10.672;2022-07-21T01:04:09;21.70;99.90
30134;DHT22;16946;49.984;10.672;2022-07-21T01:04:39;21.70;99.90
30134;DHT22;16946;49.984;10.672;2022-07-21T01:05:12;21.70;99.90
30134;DHT22;16946;49.984;10.672;2022-07-21T01:05:45;21.70;99.90
30134;DHT22;16946;49.984;10.672;2022-07-21T01:06:15;21.70;99.90
30134;DHT22;16946;49.984;10.672;2022-07-21T01:06:46;21.60;99.90
30134;DHT22;16946;49.984;10.672;2022-07-21T01:07:17;21.50;99.90
30134;DHT22;16946;49.984;10.672;2022-07-21T01:07:52;21.50;99.90
30134;DHT22;16946;49.984;10.672;2022-07-21T01:08:23;21.50;99.90
30134;DHT22;16946;49.984;10.672;2022-07-21T01:08:54;21.50;99.90
30134;DHT22;16946;49.984;10.672;2022-07-21T01:09:24;21.50;99.90
30134;DHT22;16946;49.984;10.672;2022-07-21T01:09:55;21.50;99.90
30134;DHT22;16946;49.984;10.672;2022-07-21T01:10:26;21.40;99.90
30134;DHT22;16946;49.984;10.672;2022-07-21T01:10:56;21.40;99.90
30134;DHT22;16946;49.984;10.672;2022-07-21T01:11:27;21.40;99.90
30134;DHT22;16946;49.984;10.672;2022-07-21T01:11:58;21.40;99.90
30134;DHT22;16946;49.984;10.672;2022-07-21T01:12:29;21.40;99.90
30134;DHT22;16946;49.984;10.672;2022-07-21T01:13:00;21.40;99.90
30134;DHT22;16946;49.984;10.672;2022-07-21T01:13:31;21.40;99.90
30134;DHT22;16946;49.984;10.672;2022-07-21T01:14:02;21.40;99.90
30134;DHT22;16946;49.984;10.672;2022-07-21T01:14:33;21.40;99.90
30134;DHT22;16946;49.984;10.672;2022-07-21T01:15:05;21.40;99.90
30134;DHT22;16946;49.984;10.672;2022-07-21T01:15:36;21.40;99.90
30134;DHT22;16946;49.984;10.672;2022-07-21T01:16:10;21.50;99.90
30134;DHT22;16946;49.984;10.672;2022-07-21T01:16:40;21.50;99.90
30134;DHT22;16946;49.984;10.672;2022-07-21T01:17:11;21.60;99.90
30134;DHT22;16946;49.984;10.672;2022-07-21T01:17:44;21.60;99.90
30134;DHT22;16946;49.984;10.672;2022-07-21T01:18:14;21.60;99.90
30134;DHT22;16946;49.984;10.672;2022-07-21T01:18:45;21.60;99.90
30134;DHT22;16946;49.984;10.672;2022-07-21T01:19:15;21.60;99.90
30134;DHT22;16946;49.984;10.672;2022-07-21T01:19:46;21.60;99.90
30134;DHT22;16946;49.984;10.672;2022-07-21T01:20:19;21.60;99.90
30134;DHT22;16946;49.984;10.672;2022-07-21T01:20:53;21.60;99.90
30134;DHT22;16946;49.984;10.672;2022-07-21T01:21:35;21.70;99.90
30134;DHT22;16946;49.984;10.672;2022-07-21T01:22:07;21.70;99.90
30134;DHT22;16946;49.984;10.672;2022-07-21T01:22:40;21.80;99.90
30134;DHT22;16946;49.984;10.672;2022-07-21T01:23:11;21.80;99.90
30134;DHT22;16946;49.984;10.672;2022-07-21T01:23:41;21.80;99.90
30134;DHT22;16946;49.984;10.672;2022-07-21T01:24:12;21.80;99.90
30134;DHT22;16946;49.984;10.672;2022-07-21T01:24:43;21.80;99.90
30134;DHT22;16946;49.984;10.672;2022-07-21T01:25:15;21.80;99.90
30134;DHT22;16946;49.984;10.672;2022-07-21T01:25:50;21.90;99.90
30134;DHT22;16946;49.984;10.672;2022-07-21T01:26:21;21.90;99.90
30134;DHT22;16946;49.984;10.672;2022-07-21T01:26:52;21.90;99.90
30134;DHT22;16946;49.984;10.672;2022-07-21T01:27:27;21.90;99.90
30134;DHT22;16946;49.984;10.672;2022-07-21T01:27:58;21.90;99.90
30134;DHT22;16946;49.984;10.672;2022-07-21T01:28:29;21.90;99.90
30134;DHT22;16946;49.984;10.672;2022-07-21T01:28:59;21.90;99.90
30134;DHT22;16946;49.984;10.672;2022-07-21T01:29:30;21.80;99.90
30134;DHT22;16946;49.984;10.672;2022-07-21T01:30:01;21.80;99.90
30134;DHT22;16946;49.984;10.672;2022-07-21T01:30:31;21.90;99.90
30134;DHT22;16946;49.984;10.672;2022-07-21T01:31:02;21.90;99.90
30134;DHT22;16946;49.984;10.672;2022-07-21T01:31:32;21.90;99.90
30134;DHT22;16946;49.984;10.672;2022-07-21T01:32:03;22.00;99.90
30134;DHT22;16946;49.984;10.672;2022-07-21T01:32:36;22.00;99.90
30134;DHT22;16946;49.984;10.672;2022-07-21T01:33:06;22.00;99.90
30134;DHT22;16946;49.984;10.672;2022-07-21T01:33:37;22.00;99.90
30134;DHT22;16946;49.984;10.672;2022-07-21T01:34:09;22.00;99.90
30134;DHT22;16946;49.984;10.672;2022-07-21T01:34:39;21.90;99.90
30134;DHT22;16946;49.984;10.672;2022-07-21T01:35:12;21.80;99.90
30134;DHT22;16946;49.984;10.672;2022-07-21T01:35:43;21.80;99.90
30134;DHT22;16946;49.984;10.672;2022-07-21T01:36:15;21.80;99.90
30134;DHT22;16946;49.984;10.672;2022-07-21T01:36:46;21.80;99.90
30134;DHT22;16946;49.984;10.672;2022-07-21T01:37:21;21.80;99.90
30134;DHT22;16946;49.984;10.672;2022-07-21T01:37:51;21.80;99.90
30134;DHT22;16946;49.984;10.672;2022-07-21T01:38:22;21.80;99.90
30134;DHT22;16946;49.984;10.672;2022-07-21T01:39:12;21.80;99.90
30134;DHT22;16946;49.984;10.672;2022-07-21T01:40:02;21.70;99.90
30134;DHT22;16946;49.984;10.672;2022-07-21T01:40:57;21.60;99.90
30134;DHT22;16946;49.984;10.672;2022-07-21T01:41:46;21.50;99.90
30134;DHT22;16946;49.984;10.672;2022-07-21T01:42:16;21.50;99.90
30134;DHT22;16946;49.984;10.672;2022-07-21T01:42:47;21.50;99.90
30134;DHT22;16946;49.984;10.672;2022-07-21T01:43:17;21.50;99.90
30134;DHT22;16946;49.984;10.672;2022-07-21T01:43:48;21.50;99.90
30134;DHT22;16946;49.984;10.672;2022-07-21T01:44:18;21.40;99.90
30134;DHT22;16946;49.984;10.672;2022-07-21T01:44:49;21.40;99.90
30134;DHT22;16946;49.984;10.672;2022-07-21T01:45:21;21.30;99.90
30134;DHT22;16946;49.984;10.672;2022-07-21T01:45:52;21.30;99.90
30134;DHT22;16946;49.984;10.672;2022-07-21T01:46:23;21.20;99.90
30134;DHT22;16946;49.984;10.672;2022-07-21T01:46:54;21.20;99.90
30134;DHT22;16946;49.984;10.672;2022-07-21T01:47:25;21.20;99.90
30134;DHT22;16946;49.984;10.672;2022-07-21T01:47:56;21.20;99.90
30134;DHT22;16946;49.984;10.672;2022-07-21T01:48:27;21.20;99.90
30134;DHT22;16946;49.984;10.672;2022-07-21T01:48:57;21.20;99.90
30134;DHT22;16946;49.984;10.672;2022-07-21T01:49:28;21.30;99.90
30134;DHT22;16946;49.984;10.672;2022-07-21T01:49:58;21.30;99.90
30134;DHT22;16946;49.984;10.672;2022-07-21T01:50:29;21.30;99.90
30134;DHT22;16946;49.984;10.672;2022-07-21T01:50:59;21.40;99.90
30134;DHT22;16946;49.984;10.672;2022-07-21T01:51:30;21.40;99.90
30134;DHT22;16946;49.984;10.672;2022-07-21T01:52:00;21.40;99.90
30134;DHT22;16946;49.984;10.672;2022-07-21T01:52:31;21.40;99.90
30134;DHT22;16946;49.984;10.672;2022-07-21T01:53:01;21.40;99.90
30134;DHT22;16946;49.984;10.672;2022-07-21T01:53:33;21.40;99.90
30134;DHT22;16946;49.984;10.672;2022-07-21T01:54:04;21.40;99.90
30134;DHT22;16946;49.984;10.672;2022-07-21T01:54:36;21.30;99.90
30134;DHT22;16946;49.984;10.672;2022-07-21T01:55:07;21.30;99.90
30134;DHT22;16946;49.984;10.672;2022-07-21T01:55:38;21.30;99.90
30134;DHT22;16946;49.984;10.672;2022-07-21T01:56:08;21.30;99.90
30134;DHT22;16946;49.984;10.672;2022-07-21T01:56:39;21.30;99.90
30134;DHT22;16946;49.984;10.672;2022-07-21T01:57:10;21.20;99.90
30134;DHT22;16946;49.984;10.672;2022-07-21T01:57:40;21.20;99.90
30134;DHT22;16946;49.984;10.672;2022-07-21T01:58:11;21.10;99.90
30134;DHT22;16946;49.984;10.672;2022-07-21T01:58:41;21.20;99.90
30134;DHT22;16946;49.984;10.672;2022-07-21T01:59:12;21.10;99.90
30134;DHT22;16946;49.984;10.672;2022-07-21T01:59:42;21.10;99.90
30134;DHT22;16946;49.984;10.672;2022-07-21T02:00:13;21.10;99.90
30134;DHT22;16946;49.984;10.672;2022-07-21T02:00:44;21.10;99.90
30134;DHT22;16946;49.984;10.672;2022-07-21T02:01:16;21.20;99.90
30134;DHT22;16946;49.984;10.672;2022-07-21T02:01:47;21.20;99.90
30134;DHT22;16946;49.984;10.672;2022-07-21T02:02:17;21.30;99.90
30134;DHT22;16946;49.984;10.672;2022-07-21T02:02:51;21.30;99.90
30134;DHT22;16946;49.984;10.672;2022-07-21T02:03:22;21.40;99.90
30134;DHT22;16946;49.984;10.672;2022-07-21T02:03:54;21.50;99.90
30134;DHT22;16946;49.984;10.672;2022-07-21T02:04:25;21.60;99.90
30134;DHT22;16946;49.984;10.672;2022-07-21T02:04:55;21.60;99.90
30134;DHT22;16946;49.984;10.672;2022-07-21T02:05:26;21.70;99.90
30134;DHT22;16946;49.984;10.672;2022-07-21T02:06:03;21.80;99.90
30134;DHT22;16946;49.984;10.672;2022-07-21T02:06:34;21.80;99.90
30134;DHT22;16946;49.984;10.672;2022-07-21T02:07:05;21.80;99.90
30134;DHT22;16946;49.984;10.672;2022-07-21T02:07:35;21.80;99.90
30134;DHT22;16946;49.984;10.672;2022-07-21T02:08:06;21.80;99.90
30134;DHT22;16946;49.984;10.672;2022-07-21T02:08:36;21.90;99.90
30134;DHT22;16946;49.984;10.672;2022-07-21T02:09:07;21.90;99.90
30134;DHT22;16946;49.984;10.672;2022-07-21T02:09:38;21.90;99.90
30134;DHT22;16946;49.984;10.672;2022-07-21T02:10:09;21.90;99.90
30134;DHT22;16946;49.984;10.672;2022-07-21T02:10:40;21.90;99.90
30134;DHT22;16946;49.984;10.672;2022-07-21T02:11:12;21.90;99.90
30134;DHT22;16946;49.984;10.672;2022-07-21T02:11:43;21.90;99.90
30134;DHT22;16946;49.984;10.672;2022-07-21T02:12:13;21.80;99.90
30134;DHT22;16946;49.984;10.672;2022-07-21T02:12:44;21.70;99.90
30134;DHT22;16946;49.984;10.672;2022-07-21T02:13:14;21.70;99.90
30134;DHT22;16946;49.984;10.672;2022-07-21T02:13:46;21.70;99.90
30134;DHT22;16946;49.984;10.672;2022-07-21T02:14:16;21.70;99.90
30134;DHT22;16946;49.984;10.672;2022-07-21T02:14:47;21.60;99.90
30134;DHT22;16946;49.984;10.672;2022-07-21T02:15:18;21.70;99.90
30134;DHT22;16946;49.984;10.672;2022-07-21T02:15:48;21.70;99.90
30134;DHT22;16946;49.984;10.672;2022-07-21T02:16:19;21.70;99.90
30134;DHT22;16946;49.984;10.672;2022-07-21T02:16:49;21.70;99.90
30134;DHT22;16946;49.984;10.672;2022-07-21T02:17:20;21.70;99.90
30134;DHT22;16946;49.984;10.672;2022-07-21T02:17:50;21.70;99.90
30134;DHT22;16946;49.984;10.672;2022-07-21T02:18:21;21.70;99.90
30134;DHT22;16946;49.984;10.672;2022-07-21T02:18:51;21.70;99.90
30134;DHT22;16946;49.984;10.672;2022-07-21T02:19:22;21.70;99.90
30134;DHT22;16946;49.984;10.672;2022-07-21T02:19:52;21.70;99.90
30134;DHT22;16946;49.984;10.672;2022-07-21T02:20:23;21.70;99.90
30134;DHT22;16946;49.984;10.672;2022-07-21T02:20:54;21.70;99.90
30134;DHT22;16946;49.984;10.672;2022-07-21T02:21:24;21.60;99.90
30134;DHT22;16946;49.984;10.672;2022-07-21T02:21:55;21.60;99.90
30134;DHT22;16946;49.984;10.672;2022-07-21T02:22:25;21.60;99.90
30134;DHT22;16946;49.984;10.672;2022-07-21T02:22:56;21.60;99.90
30134;DHT22;16946;49.984;10.672;2022-07-21T02:23:26;21.50;99.90
30134;DHT22;16946;49.984;10.672;2022-07-21T02:23:57;21.50;99.90
30134;DHT22;16946;49.984;10.672;2022-07-21T02:24:28;21.50;99.90
30134;DHT22;16946;49.984;10.672;2022-07-21T02:24:58;21.50;99.90
30134;DHT22;16946;49.984;10.672;2022-07-21T02:25:29;21.40;99.90
30134;DHT22;16946;49.984;10.672;2022-07-21T02:26:00;21.40;99.90
30134;DHT22;16946;49.984;10.672;2022-07-21T02:26:30;21.40;99.90
30134;DHT22;16946;49.984;10.672;2022-07-21T02:27:01;21.40;99.90
30134;DHT22;16946;49.984;10.672;2022-07-21T02:27:32;21.40;99.90
30134;DHT22;16946;49.984;10.672;2022-07-21T02:28:02;21.40;99.90
30134;DHT22;16946;49.984;10.672;2022-07-21T02:28:33;21.30;99.90
30134;DHT22;16946;49.984;10.672;2022-07-21T02:29:04;21.30;99.90
30134;DHT22;16946;49.984;10.672;2022-07-21T02:29:34;21.30;99.90
30134;DHT22;16946;49.984;10.672;2022-07-21T02:30:05;21.30;99.90
30134;DHT22;16946;49.984;10.672;2022-07-21T02:30:36;21.30;99.90
30134;DHT22;16946;49.984;10.672;2022-07-21T02:31:07;21.30;99.90
30134;DHT22;16946;49.984;10.672;2022-07-21T02:31:38;21.30;99.90
30134;DHT22;16946;49.984;10.672;2022-07-21T02:32:08;21.20;99.90
30134;DHT22;16946;49.984;10.672;2022-07-21T02:32:39;21.20;99.90
30134;DHT22;16946;49.984;10.672;2022-07-21T02:33:10;21.10;99.90
30134;DHT22;16946;49.984;10.672;2022-07-21T02:33:40;21.00;99.90
30134;DHT22;16946;49.984;10.672;2022-07-21T02:34:11;21.00;99.90
30134;DHT22;16946;49.984;10.672;2022-07-21T02:34:41;21.00;99.90
30134;DHT22;16946;49.984;10.672;2022-07-21T02:35:12;21.00;99.90
30134;DHT22;16946;49.984;10.672;2022-07-21T02:35:43;20.90;99.90
30134;DHT22;16946;49.984;10.672;2022-07-21T02:36:13;20.90;99.90
30134;DHT22;16946;49.984;10.672;2022-07-21T02:36:44;20.80;99.90
30134;DHT22;16946;49.984;10.672;2022-07-21T02:37:15;20.80;99.90
30134;DHT22;16946;49.984;10.672;2022-07-21T02:37:45;20.80;99.90
30134;DHT22;16946;49.984;10.672;2022-07-21T02:38:16;20.70;99.90
30134;DHT22;16946;49.984;10.672;2022-07-21T02:38:46;20.70;99.90
30134;DHT22;16946;49.984;10.672;2022-07-21T02:39:17;20.70;99.90
30134;DHT22;16946;49.984;10.672;2022-07-21T02:39:49;20.60;99.90
30134;DHT22;16946;49.984;10.672;2022-07-21T02:40:19;20.70;99.90
30134;DHT22;16946;49.984;10.672;2022-07-21T02:40:50;20.60;99.90
30134;DHT22;16946;49.984;10.672;2022-07-21T02:41:21;20.70;99.90
30134;DHT22;16946;49.984;10.672;2022-07-21T02:41:51;20.70;99.90
30134;DHT22;16946;49.984;10.672;2022-07-21T02:42:22;20.70;99.90
30134;DHT22;16946;49.984;10.672;2022-07-21T02:42:52;20.70;99.90
30134;DHT22;16946;49.984;10.672;2022-07-21T02:43:23;20.80;99.90
30134;DHT22;16946;49.984;10.672;2022-07-21T02:43:54;20.80;99.90
30134;DHT22;16946;49.984;10.672;2022-07-21T02:44:24;20.80;99.90
30134;DHT22;16946;49.984;10.672;2022-07-21T02:44:55;20.80;99.90
30134;DHT22;16946;49.984;10.672;2022-07-21T02:45:26;20.70;99.90
30134;DHT22;16946;49.984;10.672;2022-07-21T02:45:56;20.60;99.90
30134;DHT22;16946;49.984;10.672;2022-07-21T02:46:27;20.60;99.90
30134;DHT22;16946;49.984;10.672;2022-07-21T02:46:57;20.60;99.90
30134;DHT22;16946;49.984;10.672;2022-07-21T02:47:28;20.50;99.90
30134;DHT22;16946;49.984;10.672;2022-07-21T02:48:05;20.60;99.90
30134;DHT22;16946;49.984;10.672;2022-07-21T02:48:35;20.60;99.90
30134;DHT22;16946;49.984;10.672;2022-07-21T02:49:06;20.60;99.90
30134;DHT22;16946;49.984;10.672;2022-07-21T02:49:36;20.50;99.90
30134;DHT22;16946;49.984;10.672;2022-07-21T02:50:07;20.50;99.90
30134;DHT22;16946;49.984;10.672;2022-07-21T02:50:41;20.50;99.90
30134;DHT22;16946;49.984;10.672;2022-07-21T02:51:12;20.50;99.90
30134;DHT22;16946;49.984;10.672;2022-07-21T02:51:42;20.50;99.90
30134;DHT22;16946;49.984;10.672;2022-07-21T02:52:14;20.50;99.90
30134;DHT22;16946;49.984;10.672;2022-07-21T02:52:45;20.50;99.90
30134;DHT22;16946;49.984;10.672;2022-07-21T02:53:17;20.50;99.90
30134;DHT22;16946;49.984;10.672;2022-07-21T02:53:49;20.60;99.90
30134;DHT22;16946;49.984;10.672;2022-07-21T02:54:20;20.60;99.90
30134;DHT22;16946;49.984;10.672;2022-07-21T02:54:50;20.70;99.90
30134;DHT22;16946;49.984;10.672;2022-07-21T02:55:21;20.70;99.90
30134;DHT22;16946;49.984;10.672;2022-07-21T02:55:52;20.70;99.90
30134;DHT22;16946;49.984;10.672;2022-07-21T02:56:25;20.70;99.90
30134;DHT22;16946;49.984;10.672;2022-07-21T02:56:56;20.70;99.90
30134;DHT22;16946;49.984;10.672;2022-07-21T02:57:26;20.80;99.90
30134;DHT22;16946;49.984;10.672;2022-07-21T02:58:24;20.80;99.90
30134;DHT22;16946;49.984;10.672;2022-07-21T02:58:55;20.90;99.90
30134;DHT22;16946;49.984;10.672;2022-07-21T02:59:25;20.90;99.90
30134;DHT22;16946;49.984;10.672;2022-07-21T02:59:56;20.90;99.90
30134;DHT22;16946;49.984;10.672;2022-07-21T03:00:26;20.90;99.90
30134;DHT22;16946;49.984;10.672;2022-07-21T03:01:05;20.90;99.90
30134;DHT22;16946;49.984;10.672;2022-07-21T03:01:35;20.90;99.90
30134;DHT22;16946;49.984;10.672;2022-07-21T03:02:06;20.90;99.90
30134;DHT22;16946;49.984;10.672;2022-07-21T03:02:37;20.90;99.90
30134;DHT22;16946;49.984;10.672;2022-07-21T03:03:08;20.90;99.90
30134;DHT22;16946;49.984;10.672;2022-07-21T03:03:38;20.90;99.90
30134;DHT22;16946;49.984;10.672;2022-07-21T03:04:09;20.90;99.90
30134;DHT22;16946;49.984;10.672;2022-07-21T03:04:39;21.00;99.90
30134;DHT22;16946;49.984;10.672;2022-07-21T03:05:10;20.90;99.90
30134;DHT22;16946;49.984;10.672;2022-07-21T03:05:40;20.80;99.90
30134;DHT22;16946;49.984;10.672;2022-07-21T03:06:11;20.70;99.90
30134;DHT22;16946;49.984;10.672;2022-07-21T03:06:42;20.60;99.90
30134;DHT22;16946;49.984;10.672;2022-07-21T03:07:12;20.60;99.90
30134;DHT22;16946;49.984;10.672;2022-07-21T03:07:43;20.50;99.90
30134;DHT22;16946;49.984;10.672;2022-07-21T03:08:14;20.50;99.90
30134;DHT22;16946;49.984;10.672;2022-07-21T03:08:44;20.50;99.90
30134;DHT22;16946;49.984;10.672;2022-07-21T03:09:15;20.50;99.90
30134;DHT22;16946;49.984;10.672;2022-07-21T03:09:45;20.50;99.90
30134;DHT22;16946;49.984;10.672;2022-07-21T03:10:16;20.50;99.90
30134;DHT22;16946;49.984;10.672;2022-07-21T03:10:46;20.50;99.90
30134;DHT22;16946;49.984;10.672;2022-07-21T03:11:17;20.50;99.90
30134;DHT22;16946;49.984;10.672;2022-07-21T03:11:47;20.50;99.90
30134;DHT22;16946;49.984;10.672;2022-07-21T03:12:18;20.60;99.90
30134;DHT22;16946;49.984;10.672;2022-07-21T03:12:49;20.60;99.90
30134;DHT22;16946;49.984;10.672;2022-07-21T03:13:21;20.60;99.90
30134;DHT22;16946;49.984;10.672;2022-07-21T03:13:52;20.60;99.90
30134;DHT22;16946;49.984;10.672;2022-07-21T03:14:22;20.70;99.90